createdAt,value
2022-08-24T00:01:11.794Z,98906.03
2022-08-24T00:03:39.174Z,98906.88
2022-08-24T00:06:12.976Z,98906.59
2022-08-24T00:08:46.978Z,98912.78
2022-08-24T00:11:13.600Z,98910.56
2022-08-24T00:13:46.982Z,98905.19
2022-08-24T00:16:14.818Z,98907.53
2022-08-24T00:18:47.875Z,98896.50
2022-08-24T00:21:20.876Z,98900.75
2022-08-24T00:23:48.996Z,98901.97
2022-08-24T00:26:28.837Z,98904.66
2022-08-24T00:29:07.308Z,98898.66
2022-08-24T00:31:40.874Z,98899.19
2022-08-24T00:34:07.856Z,98893.34
2022-08-24T00:36:42.194Z,98897.06
2022-08-24T00:39:09.053Z,98893.34
2022-08-24T00:41:36.069Z,98893.19
2022-08-24T00:44:10.780Z,98894.66
2022-08-24T00:46:37.568Z,98892.53
2022-08-24T00:49:16.783Z,98886.34
2022-08-24T00:51:48.030Z,98890.03
2022-08-24T00:54:24.799Z,98892.72
2022-08-24T00:56:54.164Z,98896.69
2022-08-24T00:59:22.424Z,98892.34
2022-08-24T01:01:56.862Z,98890.84
2022-08-24T01:04:38.803Z,98900.41
2022-08-24T01:07:05.432Z,98895.69
2022-08-24T01:09:38.870Z,98899.56
2022-08-24T01:12:05.771Z,98895.97
2022-08-24T01:14:38.951Z,98892.44
2022-08-24T01:17:24.169Z,98892.53
2022-08-24T01:20:00.940Z,98893.81
2022-08-24T01:22:34.467Z,98893.66
2022-08-24T01:25:07.961Z,98887.34
2022-08-24T01:27:55.952Z,98883.66
2022-08-24T01:30:36.265Z,98895.41
2022-08-24T01:33:12.842Z,98892.88
2022-08-24T01:35:45.825Z,98889.78
2022-08-24T01:38:12.454Z,98896.13
2022-08-24T01:40:48.779Z,98896.13
2022-08-24T01:43:15.586Z,98896.50
2022-08-24T01:45:49.790Z,98899.38
2022-08-24T01:48:19.927Z,98885.75
2022-08-24T01:50:49.699Z,98879.13
2022-08-24T01:53:22.790Z,98889.84
2022-08-24T01:55:50.225Z,98888.84
2022-08-24T01:58:23.950Z,98894.03
2022-08-24T02:00:50.510Z,98891.13
2022-08-24T02:03:27.654Z,98888.84
2022-08-24T02:05:57.266Z,98890.69
2022-08-24T02:08:30.763Z,98893.16
2022-08-24T02:10:57.346Z,98896.88
2022-08-24T02:13:30.794Z,98897.53
2022-08-24T02:16:21.018Z,98899.38
2022-08-24T02:18:54.893Z,98908.25
2022-08-24T02:21:28.008Z,98907.41
2022-08-24T02:24:00.775Z,98909.72
2022-08-24T02:26:31.357Z,98910.94
2022-08-24T02:29:11.840Z,98910.75
2022-08-24T02:31:38.601Z,98902.59
2022-08-24T02:34:11.770Z,98910.13
2022-08-24T02:36:38.661Z,98906.09
2022-08-24T02:39:11.770Z,98913.22
2022-08-24T02:41:38.640Z,98912.22
2022-08-24T02:44:05.829Z,98912.31
2022-08-24T02:46:40.027Z,98905.47
2022-08-24T02:49:11.011Z,98899.00
2022-08-24T02:51:46.834Z,98895.78
2022-08-24T02:54:20.783Z,98895.31
2022-08-24T02:56:48.071Z,98899.56
2022-08-24T02:59:22.775Z,98903.06
2022-08-24T03:01:55.836Z,98899.41
2022-08-24T03:04:22.589Z,98898.28
2022-08-24T03:06:55.783Z,98893.66
2022-08-24T03:09:23.421Z,98898.56
2022-08-24T03:11:56.923Z,98898.09
2022-08-24T03:14:23.552Z,98900.13
2022-08-24T03:16:56.771Z,98902.16
2022-08-24T03:19:23.858Z,98894.94
2022-08-24T03:21:56.867Z,98898.81
2022-08-24T03:24:23.834Z,98897.53
2022-08-24T03:26:56.747Z,98899.53
2022-08-24T03:29:35.258Z,98892.34
2022-08-24T03:32:08.766Z,98893.72
2022-08-24T03:34:35.410Z,98896.94
2022-08-24T03:37:08.822Z,98894.44
2022-08-24T03:39:35.781Z,98896.09
2022-08-24T03:42:08.756Z,98897.78
2022-08-24T03:44:35.402Z,98914.66
2022-08-24T03:47:08.765Z,98913.66
2022-08-24T03:49:35.920Z,98909.31
2022-08-24T03:52:08.826Z,98916.34
2022-08-24T03:54:35.490Z,98916.16
2022-08-24T03:57:08.913Z,98916.34
2022-08-24T03:59:39.332Z,98920.84
2022-08-24T04:02:20.003Z,98918.00
2022-08-24T04:04:46.587Z,98917.47
2022-08-24T04:07:19.757Z,98911.00
2022-08-24T04:09:46.671Z,98913.47
2022-08-24T04:12:19.785Z,98909.31
2022-08-24T04:14:58.921Z,98915.50
2022-08-24T04:17:25.528Z,98910.88
2022-08-24T04:20:04.811Z,98921.41
2022-08-24T04:22:34.103Z,98925.38
2022-08-24T04:25:09.023Z,98925.22
2022-08-24T04:27:56.921Z,98930.41
2022-08-24T04:30:23.482Z,98929.53
2022-08-24T04:32:49.982Z,98927.53
2022-08-24T04:35:22.902Z,98932.91
2022-08-24T04:37:50.161Z,98939.09
2022-08-24T04:40:23.758Z,98945.91
2022-08-24T04:42:57.837Z,98948.59
2022-08-24T04:45:25.147Z,98954.09
2022-08-24T04:47:58.768Z,98958.06
2022-08-24T04:50:31.927Z,98957.69
2022-08-24T04:52:58.765Z,98958.53
2022-08-24T04:55:31.946Z,98958.00
2022-08-24T04:58:04.895Z,98962.88
2022-08-24T05:00:31.737Z,98955.44
2022-08-24T05:03:05.156Z,98952.56
2022-08-24T05:05:32.759Z,98962.50
2022-08-24T05:08:05.751Z,98965.19
2022-08-24T05:10:33.883Z,98972.03
2022-08-24T05:13:06.777Z,98962.81
2022-08-24T05:15:40.891Z,98956.88
2022-08-24T05:18:07.604Z,98966.31
2022-08-24T05:20:42.731Z,98970.47
2022-08-24T05:23:16.806Z,98963.47
2022-08-24T05:25:43.505Z,98967.06
2022-08-24T05:28:16.739Z,98966.31
2022-08-24T05:30:51.113Z,98969.72
2022-08-24T05:33:24.753Z,98967.06
2022-08-24T05:35:57.744Z,98969.56
2022-08-24T05:38:30.747Z,98965.94
2022-08-24T05:40:57.341Z,98971.69
2022-08-24T05:43:30.790Z,98972.72
2022-08-24T05:45:57.672Z,98984.38
2022-08-24T05:48:24.419Z,98976.44
2022-08-24T05:50:59.739Z,98978.47
2022-08-24T05:53:26.484Z,98982.16
2022-08-24T05:55:59.732Z,98979.34
2022-08-24T05:58:31.053Z,98975.38
2022-08-24T06:01:05.735Z,98980.84
2022-08-24T06:03:38.783Z,98975.09
2022-08-24T06:06:13.817Z,98973.09
2022-08-24T06:08:49.738Z,98973.19
2022-08-24T06:11:20.969Z,98974.75
2022-08-24T06:13:56.331Z,98965.41
2022-08-24T06:16:32.934Z,98960.59
2022-08-24T06:18:59.755Z,98956.47
2022-08-24T06:21:33.796Z,98940.38
2022-08-24T06:24:00.493Z,98950.34
2022-08-24T06:26:52.765Z,98945.16
2022-08-24T06:29:33.731Z,98945.22
2022-08-24T06:32:00.350Z,98932.66
2022-08-24T06:34:33.718Z,98930.72
2022-08-24T06:37:00.529Z,98927.78
2022-08-24T06:39:33.718Z,98927.19
2022-08-24T06:42:06.769Z,98930.72
2022-08-24T06:44:39.736Z,98927.66
2022-08-24T06:47:06.731Z,98935.72
2022-08-24T06:49:39.732Z,98940.78
2022-08-24T06:52:13.837Z,98925.50
2022-08-24T06:54:46.991Z,98928.47
2022-08-24T06:57:19.825Z,98932.53
2022-08-24T06:59:46.689Z,98932.44
2022-08-24T07:02:23.094Z,98926.88
2022-08-24T07:04:56.715Z,98928.75
2022-08-24T07:07:30.708Z,98930.81
2022-08-24T07:09:57.310Z,98947.34
2022-08-24T07:12:30.730Z,98943.81
2022-08-24T07:15:03.732Z,98950.66
2022-08-24T07:17:42.759Z,98946.34
2022-08-24T07:20:16.709Z,98956.88
2022-08-24T07:22:44.749Z,98951.25
2022-08-24T07:25:18.902Z,98962.72
2022-08-24T07:28:00.930Z,98953.25
2022-08-24T07:30:28.187Z,98929.31
2022-08-24T07:33:03.775Z,98941.63
2022-08-24T07:35:32.435Z,98934.09
2022-08-24T07:38:05.749Z,98937.03
2022-08-24T07:40:43.499Z,98945.81
2022-08-24T07:43:27.775Z,98944.38
2022-08-24T07:45:54.413Z,98936.00
2022-08-24T07:48:27.776Z,98923.66
2022-08-24T07:50:54.449Z,98917.03
2022-08-24T07:53:32.466Z,98927.25
2022-08-24T07:56:17.723Z,98912.09
2022-08-24T07:58:44.353Z,98918.81
2022-08-24T08:01:17.750Z,98902.31
2022-08-24T08:03:50.706Z,98911.53
2022-08-24T08:06:25.711Z,98915.00
2022-08-24T08:08:58.747Z,98931.06
2022-08-24T08:11:25.591Z,98930.25
2022-08-24T08:14:00.722Z,98916.00
2022-08-24T08:16:27.604Z,98936.44
2022-08-24T08:19:16.052Z,98930.88
2022-08-24T08:22:11.719Z,98931.78
2022-08-24T08:24:39.050Z,98931.63
2022-08-24T08:27:12.703Z,98929.38
2022-08-24T08:29:46.114Z,98924.25
2022-08-24T08:32:23.750Z,98934.66
2022-08-24T08:34:50.480Z,98915.25
2022-08-24T08:37:23.828Z,98910.50
2022-08-24T08:39:52.864Z,98898.31
2022-08-24T08:42:36.723Z,98916.09
2022-08-24T08:45:09.615Z,98926.06
2022-08-24T08:47:45.725Z,98934.19
2022-08-24T08:50:28.712Z,98917.44
2022-08-24T08:53:04.545Z,98920.00
2022-08-24T08:55:40.698Z,98892.94
2022-08-24T08:58:07.317Z,98909.50
2022-08-24T09:00:56.741Z,98912.63
2022-08-24T09:03:38.783Z,98899.81
2022-08-24T09:06:27.708Z,98907.94
2022-08-24T09:08:57.801Z,98910.88
2022-08-24T09:11:44.738Z,98887.91
2022-08-24T09:14:17.701Z,98894.53
2022-08-24T09:16:53.860Z,98896.81
2022-08-24T09:19:35.720Z,98895.00
2022-08-24T09:22:16.261Z,98886.97
2022-08-24T09:25:01.700Z,98887.38
2022-08-24T09:27:51.414Z,98888.63
2022-08-24T09:30:33.741Z,98867.75
2022-08-24T09:33:20.533Z,98871.06
2022-08-24T09:36:12.729Z,98877.91
2022-08-24T09:39:00.724Z,98852.00
2022-08-24T09:41:50.341Z,98839.97
2022-08-24T09:44:51.695Z,98853.66
2022-08-24T09:47:27.464Z,98861.97
2022-08-24T09:50:00.675Z,98863.63
2022-08-24T09:52:33.743Z,98852.84
2022-08-24T09:55:06.701Z,98841.84
2022-08-24T10:00:36.742Z,98842.47
2022-08-24T10:03:20.799Z,98826.03
2022-08-24T10:06:15.824Z,98830.59
2022-08-24T10:09:01.350Z,98825.16
2022-08-24T10:11:53.713Z,98820.50
2022-08-24T10:14:32.528Z,98829.44
2022-08-24T10:17:25.719Z,98810.06
2022-08-24T10:19:58.399Z,98801.31
2022-08-24T10:22:44.708Z,98811.22
2022-08-24T10:25:33.788Z,98812.25
2022-08-24T10:28:25.684Z,98788.34
2022-08-24T10:31:14.712Z,98798.94
2022-08-24T10:34:02.710Z,98794.75
2022-08-24T10:36:32.429Z,98781.34
2022-08-24T10:39:42.851Z,98790.47
2022-08-24T10:42:41.683Z,98773.19
2022-08-24T10:45:40.787Z,98777.66
2022-08-24T10:48:37.125Z,98769.13
2022-08-24T10:51:11.722Z,98778.88
2022-08-24T10:53:38.414Z,98801.88
2022-08-24T10:56:10.162Z,98784.22
2022-08-24T10:58:48.695Z,98791.28
2022-08-24T11:01:31.917Z,98775.44
2022-08-24T11:04:04.628Z,98791.50
2022-08-24T11:06:40.694Z,98763.22
2022-08-24T11:09:09.968Z,98767.78
2022-08-24T11:11:45.690Z,98767.84
2022-08-24T11:14:12.402Z,98796.47
2022-08-24T11:16:48.704Z,98783.09
2022-08-24T11:19:37.741Z,98769.53
2022-08-24T11:22:07.109Z,98767.78
2022-08-24T11:24:46.685Z,98768.94
2022-08-24T11:27:22.670Z,98782.78
2022-08-24T11:30:03.684Z,98780.72
2022-08-24T11:33:02.674Z,98779.31
2022-08-24T11:35:38.743Z,98786.88
2022-08-24T11:38:17.638Z,98768.63
2022-08-24T11:40:55.721Z,98781.53
2022-08-24T11:43:28.535Z,98770.13
2022-08-24T11:46:25.722Z,98765.75
2022-08-24T11:49:12.443Z,98766.34
2022-08-24T11:51:48.656Z,98780.94
2022-08-24T11:54:22.098Z,98765.69
2022-08-24T11:56:57.690Z,98782.91
2022-08-24T11:59:40.668Z,98775.78
2022-08-24T12:02:22.751Z,98760.66
2022-08-24T12:05:07.679Z,98755.94
2022-08-24T12:07:43.705Z,98759.25
2022-08-24T12:10:20.926Z,98752.09
2022-08-24T12:13:16.664Z,98750.72
2022-08-24T12:15:51.966Z,98745.69
2022-08-24T12:18:28.679Z,98747.84
2022-08-24T12:20:56.563Z,98741.06
2022-08-24T12:23:35.670Z,98739.69
2022-08-24T12:26:14.664Z,98738.22
2022-08-24T12:29:03.715Z,98747.22
2022-08-24T12:31:40.036Z,98761.91
2022-08-24T12:34:19.713Z,98738.56
2022-08-24T12:36:58.416Z,98739.41
2022-08-24T12:39:33.685Z,98728.03
2022-08-24T12:42:19.660Z,98731.56
2022-08-24T12:44:59.648Z,98742.03
2022-08-24T12:48:08.671Z,98745.84
2022-08-24T12:50:42.758Z,98733.72
2022-08-24T12:53:36.712Z,98727.84
2022-08-24T12:56:28.686Z,98728.34
2022-08-24T12:59:00.913Z,98730.00
2022-08-24T13:01:40.025Z,98728.19
2022-08-24T13:04:22.683Z,98724.66
2022-08-24T13:06:59.679Z,98730.44
2022-08-24T13:09:52.944Z,98733.88
2022-08-24T13:12:44.853Z,98731.16
2022-08-24T13:15:23.796Z,98726.72
2022-08-24T13:18:03.862Z,98712.91
2022-08-24T13:20:36.786Z,98712.34
2022-08-24T13:23:09.682Z,98704.22
2022-08-24T13:25:42.801Z,98709.50
2022-08-24T13:28:17.720Z,98698.31
2022-08-24T13:31:06.827Z,98698.75
2022-08-24T13:33:36.263Z,98699.59
2022-08-24T13:36:09.697Z,98693.16
2022-08-24T13:38:38.049Z,98696.13
2022-08-24T13:41:46.727Z,98692.47
2022-08-24T13:44:21.266Z,98696.75
2022-08-24T13:46:57.716Z,98692.94
2022-08-24T13:49:46.326Z,98690.81
2022-08-24T13:52:25.674Z,98692.53
2022-08-24T13:55:06.846Z,98681.22
2022-08-24T13:57:43.663Z,98687.75
2022-08-24T14:00:39.823Z,98680.19
2022-08-24T14:03:06.474Z,98681.19
2022-08-24T14:05:50.716Z,98678.56
2022-08-24T14:08:45.650Z,98680.13
2022-08-24T14:11:23.657Z,98681.38
2022-08-24T14:14:10.695Z,98674.47
2022-08-24T14:16:56.053Z,98668.84
2022-08-24T14:19:32.654Z,98671.75
2022-08-24T14:22:17.679Z,98674.13
2022-08-24T14:24:55.019Z,98673.63
2022-08-24T14:27:40.661Z,98674.09
2022-08-24T14:30:32.652Z,98673.81
2022-08-24T14:32:59.165Z,98677.72
2022-08-24T14:35:32.706Z,98664.22
2022-08-24T14:37:59.186Z,98674.44
2022-08-24T14:40:35.075Z,98659.88
2022-08-24T14:43:21.739Z,98659.13
2022-08-24T14:46:13.694Z,98656.16
2022-08-24T14:48:46.353Z,98656.25
2022-08-24T14:51:35.700Z,98656.97
2022-08-24T14:54:12.108Z,98657.72
2022-08-24T14:56:45.653Z,98653.81
2022-08-24T14:59:18.675Z,98655.91
2022-08-24T15:01:53.717Z,98652.56
2022-08-24T15:04:39.737Z,98655.81
2022-08-24T15:07:32.653Z,98650.31
2022-08-24T15:10:00.224Z,98655.81
2022-08-24T15:12:33.720Z,98654.63
2022-08-24T15:15:06.650Z,98654.66
2022-08-24T15:17:49.149Z,98651.72
2022-08-24T15:20:27.672Z,98652.09
2022-08-24T15:23:10.691Z,98647.88
2022-08-24T15:25:48.039Z,98642.09
2022-08-24T15:28:30.643Z,98648.81
2022-08-24T15:31:07.024Z,98641.94
2022-08-24T15:33:41.688Z,98641.13
2022-08-24T15:36:17.677Z,98638.75
2022-08-24T15:38:44.395Z,98643.13
2022-08-24T15:41:26.691Z,98641.59
2022-08-24T15:43:56.407Z,98639.50
2022-08-24T15:46:32.740Z,98646.16
2022-08-24T15:49:06.277Z,98633.75
2022-08-24T15:51:39.670Z,98634.56
2022-08-24T15:54:15.294Z,98637.50
2022-08-24T15:56:53.664Z,98637.75
2022-08-24T15:59:28.625Z,98632.44
2022-08-24T16:02:32.692Z,98633.75
2022-08-24T16:05:13.083Z,98631.66
2022-08-24T16:08:06.849Z,98635.72
2022-08-24T16:10:39.879Z,98631.22
2022-08-24T16:13:14.648Z,98626.09
2022-08-24T16:16:07.678Z,98622.16
2022-08-24T16:18:48.648Z,98622.72
2022-08-24T16:21:32.664Z,98615.66
2022-08-24T16:24:09.663Z,98615.22
2022-08-24T16:26:45.388Z,98621.41
2022-08-24T16:29:37.057Z,98607.16
2022-08-24T16:32:32.407Z,98619.63
2022-08-24T16:35:22.667Z,98612.09
2022-08-24T16:37:49.416Z,98607.28
2022-08-24T16:40:22.703Z,98617.25
2022-08-24T16:42:55.649Z,98616.28
2022-08-24T16:45:22.572Z,98617.44
2022-08-24T16:47:49.207Z,98612.59
2022-08-24T16:50:27.502Z,98617.97
2022-08-24T16:53:00.654Z,98619.25
2022-08-24T16:55:28.528Z,98618.44
2022-08-24T16:57:55.822Z,98621.00
2022-08-24T17:00:29.640Z,98627.75
2022-08-24T17:03:02.662Z,98626.44
2022-08-24T17:05:29.685Z,98621.88
2022-08-24T17:07:57.941Z,98621.66
2022-08-24T17:10:33.930Z,98630.59
2022-08-24T17:13:04.025Z,98622.56
2022-08-24T17:15:36.647Z,98630.75
2022-08-24T17:18:06.490Z,98640.19
2022-08-24T17:20:39.659Z,98631.03
2022-08-24T17:23:06.267Z,98632.66
2022-08-24T17:25:39.656Z,98637.00
2022-08-24T17:28:14.004Z,98650.06
2022-08-24T17:30:53.643Z,98647.38
2022-08-24T17:33:26.831Z,98646.63
2022-08-24T17:36:00.663Z,98643.91
2022-08-24T17:38:28.892Z,98645.66
2022-08-24T17:41:02.661Z,98654.13
2022-08-24T17:43:36.651Z,98662.56
2022-08-24T17:46:03.366Z,98667.25
2022-08-24T17:48:37.647Z,98672.19
2022-08-24T17:51:10.631Z,98673.28
2022-08-24T17:53:37.495Z,98680.91
2022-08-24T17:56:12.673Z,98682.88
2022-08-24T17:58:59.530Z,98681.31
2022-08-24T18:01:32.687Z,98691.81
2022-08-24T18:03:59.452Z,98697.56
2022-08-24T18:06:34.668Z,98705.38
2022-08-24T18:09:02.861Z,98702.34
2022-08-24T18:11:35.654Z,98705.13
2022-08-24T18:14:02.504Z,98704.78
2022-08-24T18:16:35.880Z,98709.19
2022-08-24T18:19:02.539Z,98712.78
2022-08-24T18:21:29.241Z,98722.81
2022-08-24T18:24:02.632Z,98727.22
2022-08-24T18:26:36.653Z,98725.22
2022-08-24T18:29:16.658Z,98720.69
2022-08-24T18:31:50.808Z,98719.91
2022-08-24T18:34:28.649Z,98724.09
2022-08-24T18:37:02.692Z,98721.22
2022-08-24T18:39:29.299Z,98722.72
2022-08-24T18:41:57.873Z,98736.03
2022-08-24T18:44:32.000Z,98734.81
2022-08-24T18:46:58.649Z,98732.56
2022-08-24T18:49:31.677Z,98733.22
2022-08-24T18:51:58.979Z,98739.25
2022-08-24T18:54:35.640Z,98736.34
2022-08-24T18:57:02.404Z,98738.88
2022-08-24T18:59:35.649Z,98746.56
2022-08-24T19:02:30.860Z,98762.59
2022-08-24T19:05:09.646Z,98760.78
2022-08-24T19:07:38.441Z,98756.81
2022-08-24T19:10:13.632Z,98765.38
2022-08-24T19:13:04.760Z,98753.56
2022-08-24T19:15:39.530Z,98752.94
2022-08-24T19:18:14.661Z,98743.38
2022-08-24T19:20:51.659Z,98740.31
2022-08-24T19:23:26.616Z,98746.94
2022-08-24T19:25:54.595Z,98745.50
2022-08-24T19:28:28.652Z,98746.53
2022-08-24T19:31:09.713Z,98743.22
2022-08-24T19:33:43.168Z,98757.97
2022-08-24T19:36:16.647Z,98755.69
2022-08-24T19:38:43.556Z,98753.22
2022-08-24T19:41:19.062Z,98759.03
2022-08-24T19:44:27.242Z,98758.44
2022-08-24T19:47:01.664Z,98770.91
2022-08-24T19:49:28.308Z,98778.38
2022-08-24T19:52:01.650Z,98784.78
2022-08-24T19:54:45.673Z,98787.69
2022-08-24T19:57:32.028Z,98800.56
2022-08-24T20:00:07.922Z,98792.91
2022-08-24T20:02:34.667Z,98800.34
2022-08-24T20:05:07.691Z,98791.84
2022-08-24T20:07:41.645Z,98787.69
2022-08-24T20:10:13.033Z,98791.84
2022-08-24T20:12:40.440Z,98793.09
2022-08-24T20:15:13.604Z,98794.34
2022-08-24T20:17:46.821Z,98800.97
2022-08-24T20:20:15.783Z,98802.22
2022-08-24T20:22:48.720Z,98805.13
2022-08-24T20:25:17.010Z,98800.19
2022-08-24T20:28:12.159Z,98804.09
2022-08-24T20:30:51.779Z,98807.22
2022-08-24T20:33:25.578Z,98800.97
2022-08-24T20:35:58.842Z,98810.94
2022-08-24T20:38:32.727Z,98807.63
2022-08-24T20:40:59.805Z,98808.03
2022-08-24T20:43:33.919Z,98797.25
2022-08-24T20:46:01.921Z,98801.00
2022-08-24T20:48:41.866Z,98799.53
2022-08-24T20:51:10.423Z,98796.22
2022-08-24T20:53:43.711Z,98800.16
2022-08-24T20:56:13.455Z,98803.91
2022-08-24T20:58:46.676Z,98805.97
2022-08-24T21:01:13.724Z,98807.00
2022-08-24T21:03:46.734Z,98802.88
2022-08-24T21:06:15.926Z,98797.06
2022-08-24T21:08:51.887Z,98800.16
2022-08-24T21:11:19.245Z,98803.91
2022-08-24T21:13:53.783Z,98801.00
2022-08-24T21:16:22.584Z,98792.88
2022-08-24T21:18:55.727Z,98800.34
2022-08-24T21:21:22.515Z,98802.22
2022-08-24T21:23:58.690Z,98785.63
2022-08-24T21:26:33.388Z,98789.38
2022-08-24T21:29:13.760Z,98784.19
2022-08-24T21:32:06.935Z,98782.13
2022-08-24T21:34:49.821Z,98781.06
2022-08-24T21:37:18.719Z,98786.81
2022-08-24T21:39:53.816Z,98790.78
2022-08-24T21:42:21.827Z,98788.47
2022-08-24T21:44:55.721Z,98781.00
2022-08-24T21:47:22.454Z,98789.72
2022-08-24T21:49:55.697Z,98789.72
2022-08-24T21:52:22.926Z,98798.84
2022-08-24T21:54:56.695Z,98799.88
2022-08-24T21:57:23.508Z,98800.50
2022-08-24T21:59:56.614Z,98793.47
2022-08-24T22:02:23.272Z,98794.09
2022-08-24T22:04:54.588Z,98788.47
2022-08-24T22:07:30.623Z,98785.31
2022-08-24T22:10:03.619Z,98798.53
2022-08-24T22:12:36.632Z,98790.66
2022-08-24T22:15:05.477Z,98792.97
2022-08-24T22:17:38.600Z,98790.91
2022-08-24T22:20:06.784Z,98795.44
2022-08-24T22:22:39.635Z,98801.44
2022-08-24T22:25:07.244Z,98798.31
2022-08-24T22:27:40.688Z,98799.56
2022-08-24T22:30:14.998Z,98796.84
2022-08-24T22:32:54.789Z,98796.66
2022-08-24T22:35:21.329Z,98790.44
2022-08-24T22:37:54.586Z,98786.72
2022-08-24T22:40:21.205Z,98783.44
2022-08-24T22:42:54.596Z,98781.56
2022-08-24T22:45:27.580Z,98774.91
2022-08-24T22:48:00.606Z,98781.31
2022-08-24T22:50:33.575Z,98778.84
2022-08-24T22:53:06.806Z,98773.41
2022-08-24T22:55:40.608Z,98761.84
2022-08-24T22:58:13.586Z,98772.16
2022-08-24T23:00:46.644Z,98770.53
2022-08-24T23:03:13.245Z,98765.53
2022-08-24T23:05:46.635Z,98766.34
2022-08-24T23:08:19.618Z,98766.34
2022-08-24T23:10:54.572Z,98765.47
2022-08-24T23:13:28.125Z,98765.47
2022-08-24T23:16:01.765Z,98765.69
2022-08-24T23:18:53.616Z,98757.84
2022-08-24T23:21:20.327Z,98752.84
2022-08-24T23:23:46.910Z,98755.53
2022-08-24T23:26:23.609Z,98747.66
2022-08-24T23:28:50.406Z,98745.81
2022-08-24T23:31:25.618Z,98742.25
2022-08-24T23:33:58.752Z,98744.28
2022-08-24T23:36:32.595Z,98736.41
2022-08-24T23:39:00.220Z,98740.13
2022-08-24T23:41:34.608Z,98741.38
2022-08-24T23:44:03.333Z,98743.41
2022-08-24T23:46:36.687Z,98735.16
2022-08-24T23:49:03.823Z,98742.59
2022-08-24T23:51:37.607Z,98744.25
2022-08-24T23:54:05.197Z,98740.28
2022-08-24T23:56:39.577Z,98736.78
2022-08-24T23:59:17.239Z,98735.97
